Overview Statistics Trail Chart Weather Telemetry Raw packets
 

This is the latest recevied weather packets stored in our database for station/object SQ9SMC-13. If no packets are shown the sender has not sent any weather packets the latest 10 day(s).

<< 50 51 52 53 54 55 56 >>
Time Temp. Humidity Pressure Rain* Wind** Luminosity Snow
1777368905 10° C 35% 1026.5 hPa 0 mm - 608 W/m² -
1777368604 10.56° C 31% 1026.5 hPa 0 mm - 603 W/m² -
1777368303 10° C 33% 1026.5 hPa 0 mm - 599 W/m² -
1777368007 9.44° C 33% 1026.3 hPa 0 mm - 586 W/m² -
1777367704 10° C 33% 1026.5 hPa 0 mm - 583 W/m² -
1777367403 10° C 33% 1026.4 hPa 0 mm - 580 W/m² -
1777367102 10° C 32% 1026.5 hPa 0 mm - 574 W/m² -
1777366805 9.44° C 33% 1026.4 hPa 0 mm - 567 W/m² -
1777366503 10° C 32% 1026.5 hPa 0 mm - 555 W/m² -
1777366203 10° C 35% 1026.3 hPa 0 mm - 552 W/m² -
1777365903 10° C 32% 1026.3 hPa 0 mm - 546 W/m² -
1777365608 8.89° C 34% 1026.4 hPa 0 mm - 537 W/m² -
1777365303 9.44° C 32% 1026.3 hPa 0 mm - 529 W/m² -
1777365005 10° C 33% 1026.3 hPa 0 mm - 518 W/m² -
1777364702 10° C 32% 1026 hPa 0 mm - 511 W/m² -
1777364402 9.44° C 31% 1026.3 hPa 0 mm - 502 W/m² -
1777364104 8.89° C 33% 1026.2 hPa 0 mm - 492 W/m² -
1777363806 9.44° C 34% 1026.1 hPa 0 mm - 483 W/m² -
1777363504 8.89° C 35% 1026 hPa 0 mm - 475 W/m² -
1777363205 8.89° C 36% 1026 hPa 0 mm - 464 W/m² -
1777362906 9.44° C 34% 1026.2 hPa 0 mm - 453 W/m² -
1777362604 8.89° C 37% 1026.2 hPa 0 mm - 442 W/m² -
1777362303 8.89° C 37% 1026.1 hPa 0 mm - 430 W/m² -
1777362003 8.89° C 39% 1026 hPa 0 mm - 418 W/m² -
1777361703 8.89° C 39% 1025.8 hPa 0 mm - 409 W/m² -

* Rain latest hour (hover to see other rain measurements)
** Current wind speed in m/s (hover to see current wind gust speed)